sensor_id;sensor_type;location;lat;lon;timestamp;temperature;humidity
57390;DHT22;43217;52.694;6.214;2023-10-13T00:01:50;16.10;99.90
57390;DHT22;43217;52.694;6.214;2023-10-13T00:04:18;16.10;99.90
57390;DHT22;43217;52.694;6.214;2023-10-13T00:07:00;16.10;99.90
57390;DHT22;43217;52.694;6.214;2023-10-13T00:09:28;16.10;99.90
57390;DHT22;43217;52.694;6.214;2023-10-13T00:12:07;16.10;99.90
57390;DHT22;43217;52.694;6.214;2023-10-13T00:14:39;16.10;99.90
57390;DHT22;43217;52.694;6.214;2023-10-13T00:17:07;16.10;99.90
57390;DHT22;43217;52.694;6.214;2023-10-13T00:19:38;16.10;99.90
57390;DHT22;43217;52.694;6.214;2023-10-13T00:22:09;16.10;99.90
57390;DHT22;43217;52.694;6.214;2023-10-13T00:24:40;16.10;99.90
57390;DHT22;43217;52.694;6.214;2023-10-13T00:27:10;16.10;99.90
57390;DHT22;43217;52.694;6.214;2023-10-13T00:29:50;16.10;99.90
57390;DHT22;43217;52.694;6.214;2023-10-13T00:32:16;16.20;99.90
57390;DHT22;43217;52.694;6.214;2023-10-13T00:34:48;16.20;99.90
57390;DHT22;43217;52.694;6.214;2023-10-13T00:37:20;16.20;99.90
57390;DHT22;43217;52.694;6.214;2023-10-13T00:39:52;16.20;99.90
57390;DHT22;43217;52.694;6.214;2023-10-13T00:42:22;16.20;99.90
57390;DHT22;43217;52.694;6.214;2023-10-13T00:45:14;16.20;99.90
57390;DHT22;43217;52.694;6.214;2023-10-13T00:47:43;16.20;99.90
57390;DHT22;43217;52.694;6.214;2023-10-13T00:50:16;16.20;99.90
57390;DHT22;43217;52.694;6.214;2023-10-13T00:52:44;16.20;99.90
57390;DHT22;43217;52.694;6.214;2023-10-13T00:55:13;16.20;99.90
57390;DHT22;43217;52.694;6.214;2023-10-13T00:57:40;16.30;99.90
57390;DHT22;43217;52.694;6.214;2023-10-13T01:00:07;16.30;99.90
57390;DHT22;43217;52.694;6.214;2023-10-13T01:02:50;16.20;99.90
57390;DHT22;43217;52.694;6.214;2023-10-13T01:05:34;16.30;99.90
57390;DHT22;43217;52.694;6.214;2023-10-13T01:08:01;16.30;99.90
57390;DHT22;43217;52.694;6.214;2023-10-13T01:10:27;16.30;99.90
57390;DHT22;43217;52.694;6.214;2023-10-13T01:12:56;16.30;99.90
57390;DHT22;43217;52.694;6.214;2023-10-13T01:15:21;16.20;99.90
57390;DHT22;43217;52.694;6.214;2023-10-13T01:17:48;16.30;99.90
57390;DHT22;43217;52.694;6.214;2023-10-13T01:20:16;16.30;99.90
57390;DHT22;43217;52.694;6.214;2023-10-13T01:22:53;16.30;99.90
57390;DHT22;43217;52.694;6.214;2023-10-13T01:25:25;16.30;99.90
57390;DHT22;43217;52.694;6.214;2023-10-13T01:27:52;16.30;99.90
57390;DHT22;43217;52.694;6.214;2023-10-13T01:30:18;16.30;99.90
57390;DHT22;43217;52.694;6.214;2023-10-13T01:32:52;16.30;99.90
57390;DHT22;43217;52.694;6.214;2023-10-13T01:35:19;16.30;99.90
57390;DHT22;43217;52.694;6.214;2023-10-13T01:37:50;16.30;99.90
57390;DHT22;43217;52.694;6.214;2023-10-13T01:40:16;16.30;99.90
57390;DHT22;43217;52.694;6.214;2023-10-13T01:42:49;16.30;99.90
57390;DHT22;43217;52.694;6.214;2023-10-13T01:45:21;16.30;99.90
57390;DHT22;43217;52.694;6.214;2023-10-13T01:47:52;16.30;99.90
57390;DHT22;43217;52.694;6.214;2023-10-13T01:50:17;16.30;99.90
57390;DHT22;43217;52.694;6.214;2023-10-13T01:52:58;16.30;99.90
57390;DHT22;43217;52.694;6.214;2023-10-13T01:55:44;16.30;99.90
57390;DHT22;43217;52.694;6.214;2023-10-13T01:58:11;16.30;99.90
57390;DHT22;43217;52.694;6.214;2023-10-13T02:00:43;16.30;99.90
57390;DHT22;43217;52.694;6.214;2023-10-13T02:03:12;16.30;99.90
57390;DHT22;43217;52.694;6.214;2023-10-13T02:05:45;16.30;99.90
57390;DHT22;43217;52.694;6.214;2023-10-13T02:08:17;16.30;99.90
57390;DHT22;43217;52.694;6.214;2023-10-13T02:10:54;16.30;99.90
57390;DHT22;43217;52.694;6.214;2023-10-13T02:13:23;16.30;99.90
57390;DHT22;43217;52.694;6.214;2023-10-13T02:15:49;16.30;99.90
57390;DHT22;43217;52.694;6.214;2023-10-13T02:18:19;16.30;99.90
57390;DHT22;43217;52.694;6.214;2023-10-13T02:21:07;16.30;99.90
57390;DHT22;43217;52.694;6.214;2023-10-13T02:23:40;16.30;99.90
57390;DHT22;43217;52.694;6.214;2023-10-13T02:26:25;16.30;99.90
57390;DHT22;43217;52.694;6.214;2023-10-13T02:28:58;16.30;99.90
57390;DHT22;43217;52.694;6.214;2023-10-13T02:31:27;16.30;99.90
57390;DHT22;43217;52.694;6.214;2023-10-13T02:33:53;16.30;99.90
57390;DHT22;43217;52.694;6.214;2023-10-13T02:36:19;16.30;99.90
57390;DHT22;43217;52.694;6.214;2023-10-13T02:38:51;16.30;99.90
57390;DHT22;43217;52.694;6.214;2023-10-13T02:41:18;16.30;99.90
57390;DHT22;43217;52.694;6.214;2023-10-13T02:43:51;16.30;99.90
57390;DHT22;43217;52.694;6.214;2023-10-13T02:46:17;16.30;99.90
57390;DHT22;43217;52.694;6.214;2023-10-13T02:48:42;16.30;99.90
57390;DHT22;43217;52.694;6.214;2023-10-13T02:51:12;16.30;99.90
57390;DHT22;43217;52.694;6.214;2023-10-13T02:53:47;16.30;99.90
57390;DHT22;43217;52.694;6.214;2023-10-13T02:56:18;16.30;99.90
57390;DHT22;43217;52.694;6.214;2023-10-13T02:58:51;16.30;99.90
57390;DHT22;43217;52.694;6.214;2023-10-13T03:01:22;16.30;99.90
57390;DHT22;43217;52.694;6.214;2023-10-13T03:03:54;16.30;99.90
57390;DHT22;43217;52.694;6.214;2023-10-13T03:06:22;16.30;99.90
57390;DHT22;43217;52.694;6.214;2023-10-13T03:08:51;16.30;99.90
57390;DHT22;43217;52.694;6.214;2023-10-13T03:11:35;16.30;99.90
57390;DHT22;43217;52.694;6.214;2023-10-13T03:14:00;16.30;99.90
57390;DHT22;43217;52.694;6.214;2023-10-13T03:16:31;16.30;99.90
57390;DHT22;43217;52.694;6.214;2023-10-13T03:18:57;16.30;99.90
57390;DHT22;43217;52.694;6.214;2023-10-13T03:21:23;16.30;99.90
57390;DHT22;43217;52.694;6.214;2023-10-13T03:23:59;16.30;99.90
57390;DHT22;43217;52.694;6.214;2023-10-13T03:26:39;16.30;99.90
57390;DHT22;43217;52.694;6.214;2023-10-13T03:29:10;16.30;99.90
57390;DHT22;43217;52.694;6.214;2023-10-13T03:31:39;16.30;99.90
57390;DHT22;43217;52.694;6.214;2023-10-13T03:34:05;16.30;99.90
57390;DHT22;43217;52.694;6.214;2023-10-13T03:36:35;16.30;99.90
57390;DHT22;43217;52.694;6.214;2023-10-13T03:39:21;16.30;99.90
57390;DHT22;43217;52.694;6.214;2023-10-13T03:41:55;16.30;99.90
57390;DHT22;43217;52.694;6.214;2023-10-13T03:44:21;16.30;99.90
57390;DHT22;43217;52.694;6.214;2023-10-13T03:46:47;16.30;99.90
57390;DHT22;43217;52.694;6.214;2023-10-13T03:49:16;16.30;99.90
57390;DHT22;43217;52.694;6.214;2023-10-13T03:51:47;16.30;99.90
57390;DHT22;43217;52.694;6.214;2023-10-13T03:54:14;16.30;99.90
57390;DHT22;43217;52.694;6.214;2023-10-13T03:56:42;16.30;99.90
57390;DHT22;43217;52.694;6.214;2023-10-13T03:59:10;16.30;99.90
57390;DHT22;43217;52.694;6.214;2023-10-13T04:01:47;16.20;99.90
57390;DHT22;43217;52.694;6.214;2023-10-13T04:04:27;16.30;99.90
57390;DHT22;43217;52.694;6.214;2023-10-13T04:07:11;16.20;99.90
57390;DHT22;43217;52.694;6.214;2023-10-13T04:09:37;16.20;99.90
57390;DHT22;43217;52.694;6.214;2023-10-13T04:12:12;16.30;99.90
57390;DHT22;43217;52.694;6.214;2023-10-13T04:14:43;16.20;99.90
57390;DHT22;43217;52.694;6.214;2023-10-13T04:17:18;16.30;99.90
57390;DHT22;43217;52.694;6.214;2023-10-13T04:19:57;16.20;99.90
57390;DHT22;43217;52.694;6.214;2023-10-13T04:22:59;16.20;99.90
57390;DHT22;43217;52.694;6.214;2023-10-13T04:25:42;16.10;99.90
57390;DHT22;43217;52.694;6.214;2023-10-13T04:28:13;16.10;99.90
57390;DHT22;43217;52.694;6.214;2023-10-13T04:30:49;16.10;99.90
57390;DHT22;43217;52.694;6.214;2023-10-13T04:33:28;16.10;99.90
57390;DHT22;43217;52.694;6.214;2023-10-13T04:36:06;16.10;99.90
57390;DHT22;43217;52.694;6.214;2023-10-13T04:38:55;16.10;99.90
57390;DHT22;43217;52.694;6.214;2023-10-13T04:41:38;16.10;99.90
57390;DHT22;43217;52.694;6.214;2023-10-13T04:44:15;16.10;99.90
57390;DHT22;43217;52.694;6.214;2023-10-13T04:47:01;16.00;99.90
57390;DHT22;43217;52.694;6.214;2023-10-13T04:49:28;16.00;99.90
57390;DHT22;43217;52.694;6.214;2023-10-13T04:51:56;16.00;99.90
57390;DHT22;43217;52.694;6.214;2023-10-13T04:54:27;16.00;99.90
57390;DHT22;43217;52.694;6.214;2023-10-13T04:57:02;16.00;99.90
57390;DHT22;43217;52.694;6.214;2023-10-13T04:59:47;15.90;99.90
57390;DHT22;43217;52.694;6.214;2023-10-13T05:02:32;16.00;99.90
57390;DHT22;43217;52.694;6.214;2023-10-13T05:05:19;16.00;99.90
57390;DHT22;43217;52.694;6.214;2023-10-13T05:07:59;16.00;99.90
57390;DHT22;43217;52.694;6.214;2023-10-13T05:10:43;16.00;99.90
57390;DHT22;43217;52.694;6.214;2023-10-13T05:13:30;16.00;99.90
57390;DHT22;43217;52.694;6.214;2023-10-13T05:16:16;16.00;99.90
57390;DHT22;43217;52.694;6.214;2023-10-13T05:19:00;15.90;99.90
57390;DHT22;43217;52.694;6.214;2023-10-13T05:21:44;15.90;99.90
57390;DHT22;43217;52.694;6.214;2023-10-13T05:24:38;16.00;99.90
57390;DHT22;43217;52.694;6.214;2023-10-13T05:27:22;16.00;99.90
57390;DHT22;43217;52.694;6.214;2023-10-13T05:30:25;15.90;99.90
57390;DHT22;43217;52.694;6.214;2023-10-13T05:33:09;15.90;99.90
57390;DHT22;43217;52.694;6.214;2023-10-13T05:35:53;15.90;99.90
57390;DHT22;43217;52.694;6.214;2023-10-13T05:38:48;15.90;99.90
57390;DHT22;43217;52.694;6.214;2023-10-13T05:41:31;15.90;99.90
57390;DHT22;43217;52.694;6.214;2023-10-13T05:44:18;15.90;99.90
57390;DHT22;43217;52.694;6.214;2023-10-13T05:47:02;16.00;99.90
57390;DHT22;43217;52.694;6.214;2023-10-13T05:49:54;16.00;99.90
57390;DHT22;43217;52.694;6.214;2023-10-13T05:52:30;15.90;99.90
57390;DHT22;43217;52.694;6.214;2023-10-13T05:55:14;15.90;99.90
57390;DHT22;43217;52.694;6.214;2023-10-13T05:57:58;16.00;99.90
57390;DHT22;43217;52.694;6.214;2023-10-13T06:00:43;16.00;99.90
57390;DHT22;43217;52.694;6.214;2023-10-13T06:03:27;15.90;99.90
57390;DHT22;43217;52.694;6.214;2023-10-13T06:06:11;16.00;99.90
57390;DHT22;43217;52.694;6.214;2023-10-13T06:08:55;16.00;99.90
57390;DHT22;43217;52.694;6.214;2023-10-13T06:11:39;15.90;99.90
57390;DHT22;43217;52.694;6.214;2023-10-13T06:14:23;16.00;99.90
57390;DHT22;43217;52.694;6.214;2023-10-13T06:17:08;16.00;99.90
57390;DHT22;43217;52.694;6.214;2023-10-13T06:19:52;16.00;99.90
57390;DHT22;43217;52.694;6.214;2023-10-13T06:22:38;16.00;99.90
57390;DHT22;43217;52.694;6.214;2023-10-13T06:25:22;16.00;99.90
57390;DHT22;43217;52.694;6.214;2023-10-13T06:28:06;16.00;99.90
57390;DHT22;43217;52.694;6.214;2023-10-13T06:30:58;16.00;99.90
57390;DHT22;43217;52.694;6.214;2023-10-13T06:33:24;16.00;99.90
57390;DHT22;43217;52.694;6.214;2023-10-13T06:35:58;16.00;99.90
57390;DHT22;43217;52.694;6.214;2023-10-13T06:38:24;16.10;99.90
57390;DHT22;43217;52.694;6.214;2023-10-13T06:40:50;16.10;99.90
57390;DHT22;43217;52.694;6.214;2023-10-13T06:43:18;16.20;99.90
57390;DHT22;43217;52.694;6.214;2023-10-13T06:45:50;16.20;99.90
57390;DHT22;43217;52.694;6.214;2023-10-13T06:48:29;16.20;99.90
57390;DHT22;43217;52.694;6.214;2023-10-13T06:51:00;16.30;99.90
57390;DHT22;43217;52.694;6.214;2023-10-13T06:53:31;16.20;99.90
57390;DHT22;43217;52.694;6.214;2023-10-13T06:56:06;16.30;99.90
57390;DHT22;43217;52.694;6.214;2023-10-13T06:58:34;16.30;99.90
57390;DHT22;43217;52.694;6.214;2023-10-13T07:01:00;16.20;99.90
57390;DHT22;43217;52.694;6.214;2023-10-13T07:03:28;16.30;99.90
57390;DHT22;43217;52.694;6.214;2023-10-13T07:05:53;16.30;99.90
57390;DHT22;43217;52.694;6.214;2023-10-13T07:08:19;16.30;99.90
57390;DHT22;43217;52.694;6.214;2023-10-13T07:10:56;16.30;99.90
57390;DHT22;43217;52.694;6.214;2023-10-13T07:13:31;16.30;99.90
57390;DHT22;43217;52.694;6.214;2023-10-13T07:15:59;16.30;99.90
57390;DHT22;43217;52.694;6.214;2023-10-13T07:18:30;16.20;99.90
57390;DHT22;43217;52.694;6.214;2023-10-13T07:21:03;16.30;99.90
57390;DHT22;43217;52.694;6.214;2023-10-13T07:23:36;16.30;99.90
57390;DHT22;43217;52.694;6.214;2023-10-13T07:26:02;16.30;99.90
57390;DHT22;43217;52.694;6.214;2023-10-13T07:28:31;16.30;99.90
57390;DHT22;43217;52.694;6.214;2023-10-13T07:31:04;16.40;99.90
57390;DHT22;43217;52.694;6.214;2023-10-13T07:33:29;16.40;99.90
57390;DHT22;43217;52.694;6.214;2023-10-13T07:36:04;16.40;99.90
57390;DHT22;43217;52.694;6.214;2023-10-13T07:38:42;16.40;99.90
57390;DHT22;43217;52.694;6.214;2023-10-13T07:41:08;16.40;99.90
57390;DHT22;43217;52.694;6.214;2023-10-13T07:43:35;16.40;99.90
57390;DHT22;43217;52.694;6.214;2023-10-13T07:46:05;16.40;99.90
57390;DHT22;43217;52.694;6.214;2023-10-13T07:48:38;16.40;99.90
57390;DHT22;43217;52.694;6.214;2023-10-13T07:51:07;16.40;99.90
57390;DHT22;43217;52.694;6.214;2023-10-13T07:53:39;16.40;99.90
57390;DHT22;43217;52.694;6.214;2023-10-13T07:56:11;16.40;99.90
57390;DHT22;43217;52.694;6.214;2023-10-13T07:58:38;16.40;99.90
57390;DHT22;43217;52.694;6.214;2023-10-13T08:01:13;16.30;99.90
57390;DHT22;43217;52.694;6.214;2023-10-13T08:03:43;16.30;99.90
57390;DHT22;43217;52.694;6.214;2023-10-13T08:06:13;16.40;99.90
57390;DHT22;43217;52.694;6.214;2023-10-13T08:08:51;16.30;99.90
57390;DHT22;43217;52.694;6.214;2023-10-13T08:11:24;16.40;99.90
57390;DHT22;43217;52.694;6.214;2023-10-13T08:13:55;16.40;99.90
57390;DHT22;43217;52.694;6.214;2023-10-13T08:16:40;16.40;99.90
57390;DHT22;43217;52.694;6.214;2023-10-13T08:19:13;16.40;99.90
57390;DHT22;43217;52.694;6.214;2023-10-13T08:21:43;16.40;99.90
57390;DHT22;43217;52.694;6.214;2023-10-13T08:24:18;16.40;99.90
57390;DHT22;43217;52.694;6.214;2023-10-13T08:27:02;16.50;99.90
57390;DHT22;43217;52.694;6.214;2023-10-13T08:29:57;16.50;99.90
57390;DHT22;43217;52.694;6.214;2023-10-13T08:32:24;16.50;99.90
57390;DHT22;43217;52.694;6.214;2023-10-13T08:34:50;16.60;99.90
57390;DHT22;43217;52.694;6.214;2023-10-13T08:37:21;16.70;99.90
57390;DHT22;43217;52.694;6.214;2023-10-13T08:39:52;16.70;99.90
57390;DHT22;43217;52.694;6.214;2023-10-13T08:42:44;16.80;99.90
57390;DHT22;43217;52.694;6.214;2023-10-13T08:45:14;16.90;99.90
57390;DHT22;43217;52.694;6.214;2023-10-13T08:48:07;17.00;99.90
57390;DHT22;43217;52.694;6.214;2023-10-13T08:50:45;17.10;99.90
57390;DHT22;43217;52.694;6.214;2023-10-13T08:53:27;17.20;99.90
57390;DHT22;43217;52.694;6.214;2023-10-13T08:55:57;17.20;99.90
57390;DHT22;43217;52.694;6.214;2023-10-13T08:58:28;17.30;99.90
57390;DHT22;43217;52.694;6.214;2023-10-13T09:01:14;17.30;99.90
57390;DHT22;43217;52.694;6.214;2023-10-13T09:06:54;17.40;99.90
57390;DHT22;43217;52.694;6.214;2023-10-13T09:09:29;17.40;99.90
57390;DHT22;43217;52.694;6.214;2023-10-13T09:12:21;17.50;99.90
57390;DHT22;43217;52.694;6.214;2023-10-13T09:15:04;17.50;99.90
57390;DHT22;43217;52.694;6.214;2023-10-13T09:17:31;17.50;99.90
57390;DHT22;43217;52.694;6.214;2023-10-13T09:20:05;17.50;99.90
57390;DHT22;43217;52.694;6.214;2023-10-13T09:22:56;17.50;99.90
57390;DHT22;43217;52.694;6.214;2023-10-13T09:28:03;17.50;99.90
57390;DHT22;43217;52.694;6.214;2023-10-13T09:30:43;17.50;99.90
57390;DHT22;43217;52.694;6.214;2023-10-13T09:33:09;17.50;99.90
57390;DHT22;43217;52.694;6.214;2023-10-13T09:35:35;17.50;99.90
57390;DHT22;43217;52.694;6.214;2023-10-13T09:38:02;17.50;99.90
57390;DHT22;43217;52.694;6.214;2023-10-13T09:40:29;17.50;99.90
57390;DHT22;43217;52.694;6.214;2023-10-13T09:42:58;17.50;99.90
57390;DHT22;43217;52.694;6.214;2023-10-13T09:45:34;17.50;99.90
57390;DHT22;43217;52.694;6.214;2023-10-13T09:48:12;17.50;99.90
57390;DHT22;43217;52.694;6.214;2023-10-13T09:50:52;17.50;99.90
57390;DHT22;43217;52.694;6.214;2023-10-13T09:53:22;17.50;99.90
57390;DHT22;43217;52.694;6.214;2023-10-13T09:55:59;17.50;99.90
57390;DHT22;43217;52.694;6.214;2023-10-13T09:58:26;17.60;99.90
57390;DHT22;43217;52.694;6.214;2023-10-13T10:01:02;17.60;99.90
57390;DHT22;43217;52.694;6.214;2023-10-13T10:03:48;17.60;99.90
57390;DHT22;43217;52.694;6.214;2023-10-13T10:06:32;17.70;99.90
57390;DHT22;43217;52.694;6.214;2023-10-13T10:09:08;17.70;99.90
57390;DHT22;43217;52.694;6.214;2023-10-13T10:14:42;17.80;99.90
57390;DHT22;43217;52.694;6.214;2023-10-13T10:17:10;17.80;99.90
57390;DHT22;43217;52.694;6.214;2023-10-13T10:19:50;17.90;99.90
57390;DHT22;43217;52.694;6.214;2023-10-13T10:22:32;17.90;99.90
57390;DHT22;43217;52.694;6.214;2023-10-13T10:25:08;17.90;99.90
57390;DHT22;43217;52.694;6.214;2023-10-13T10:27:59;17.80;99.90
57390;DHT22;43217;52.694;6.214;2023-10-13T10:30:29;17.90;99.90
57390;DHT22;43217;52.694;6.214;2023-10-13T10:32:59;17.90;99.90
57390;DHT22;43217;52.694;6.214;2023-10-13T10:35:25;17.90;99.90
57390;DHT22;43217;52.694;6.214;2023-10-13T10:38:17;17.90;99.90
57390;DHT22;43217;52.694;6.214;2023-10-13T10:40:51;17.90;99.90
57390;DHT22;43217;52.694;6.214;2023-10-13T10:43:26;17.90;99.90
57390;DHT22;43217;52.694;6.214;2023-10-13T10:45:52;18.00;99.90
57390;DHT22;43217;52.694;6.214;2023-10-13T10:48:18;18.00;99.90
57390;DHT22;43217;52.694;6.214;2023-10-13T10:50:54;18.00;99.90
57390;DHT22;43217;52.694;6.214;2023-10-13T10:53:24;18.00;99.90
57390;DHT22;43217;52.694;6.214;2023-10-13T10:56:14;18.10;99.90
57390;DHT22;43217;52.694;6.214;2023-10-13T10:58:55;18.10;99.90
57390;DHT22;43217;52.694;6.214;2023-10-13T11:01:26;18.10;99.90
57390;DHT22;43217;52.694;6.214;2023-10-13T11:04:06;18.10;99.90
57390;DHT22;43217;52.694;6.214;2023-10-13T11:06:51;18.10;99.90
57390;DHT22;43217;52.694;6.214;2023-10-13T11:09:44;18.10;99.90
57390;DHT22;43217;52.694;6.214;2023-10-13T11:12:14;18.20;99.90
57390;DHT22;43217;52.694;6.214;2023-10-13T11:14:59;18.20;99.90
57390;DHT22;43217;52.694;6.214;2023-10-13T11:17:25;18.20;99.90
57390;DHT22;43217;52.694;6.214;2023-10-13T11:20:18;18.30;99.90
57390;DHT22;43217;52.694;6.214;2023-10-13T11:22:51;18.30;99.90
57390;DHT22;43217;52.694;6.214;2023-10-13T11:25:25;18.30;99.90
57390;DHT22;43217;52.694;6.214;2023-10-13T11:28:17;18.40;99.90
57390;DHT22;43217;52.694;6.214;2023-10-13T11:30:45;18.50;99.90
57390;DHT22;43217;52.694;6.214;2023-10-13T11:33:17;18.60;99.90
57390;DHT22;43217;52.694;6.214;2023-10-13T11:35:46;18.70;99.90
57390;DHT22;43217;52.694;6.214;2023-10-13T11:38:22;18.70;99.90
57390;DHT22;43217;52.694;6.214;2023-10-13T11:43:26;18.70;99.90
57390;DHT22;43217;52.694;6.214;2023-10-13T11:45:54;18.80;99.90
57390;DHT22;43217;52.694;6.214;2023-10-13T11:48:28;18.70;99.90
57390;DHT22;43217;52.694;6.214;2023-10-13T11:51:02;18.70;99.90
57390;DHT22;43217;52.694;6.214;2023-10-13T11:53:35;18.70;99.90
57390;DHT22;43217;52.694;6.214;2023-10-13T11:56:04;18.70;99.90
57390;DHT22;43217;52.694;6.214;2023-10-13T11:58:39;18.70;99.90
57390;DHT22;43217;52.694;6.214;2023-10-13T12:01:06;18.80;99.90
57390;DHT22;43217;52.694;6.214;2023-10-13T12:03:44;18.80;99.90
57390;DHT22;43217;52.694;6.214;2023-10-13T12:06:29;18.80;99.90
57390;DHT22;43217;52.694;6.214;2023-10-13T12:09:09;18.90;99.90
57390;DHT22;43217;52.694;6.214;2023-10-13T12:11:48;18.90;99.90
57390;DHT22;43217;52.694;6.214;2023-10-13T12:14:16;19.00;99.90
57390;DHT22;43217;52.694;6.214;2023-10-13T12:16:47;19.00;99.90
57390;DHT22;43217;52.694;6.214;2023-10-13T12:19:22;19.10;99.90
57390;DHT22;43217;52.694;6.214;2023-10-13T12:21:55;19.10;99.90
57390;DHT22;43217;52.694;6.214;2023-10-13T12:24:30;19.10;99.90
57390;DHT22;43217;52.694;6.214;2023-10-13T12:27:06;19.10;99.90
57390;DHT22;43217;52.694;6.214;2023-10-13T12:29:51;19.10;99.90
57390;DHT22;43217;52.694;6.214;2023-10-13T12:32:20;19.20;99.90
57390;DHT22;43217;52.694;6.214;2023-10-13T12:34:51;19.20;99.90
57390;DHT22;43217;52.694;6.214;2023-10-13T12:37:30;19.20;99.90
57390;DHT22;43217;52.694;6.214;2023-10-13T12:40:19;19.20;99.90
57390;DHT22;43217;52.694;6.214;2023-10-13T12:43:04;19.20;99.90
57390;DHT22;43217;52.694;6.214;2023-10-13T12:45:50;19.30;99.90
57390;DHT22;43217;52.694;6.214;2023-10-13T12:48:35;19.30;99.90
57390;DHT22;43217;52.694;6.214;2023-10-13T12:51:20;19.40;99.90
57390;DHT22;43217;52.694;6.214;2023-10-13T12:53:53;19.40;99.90
57390;DHT22;43217;52.694;6.214;2023-10-13T12:56:20;19.40;99.90
57390;DHT22;43217;52.694;6.214;2023-10-13T12:58:53;19.40;99.90
57390;DHT22;43217;52.694;6.214;2023-10-13T13:01:20;19.40;99.90
57390;DHT22;43217;52.694;6.214;2023-10-13T13:03:46;19.40;99.90
57390;DHT22;43217;52.694;6.214;2023-10-13T13:06:20;19.40;99.90
57390;DHT22;43217;52.694;6.214;2023-10-13T13:08:59;19.40;99.90
57390;DHT22;43217;52.694;6.214;2023-10-13T13:11:27;19.50;99.90
57390;DHT22;43217;52.694;6.214;2023-10-13T13:13:56;19.60;99.90
57390;DHT22;43217;52.694;6.214;2023-10-13T13:16:21;19.60;99.90
57390;DHT22;43217;52.694;6.214;2023-10-13T13:18:50;19.60;99.90
57390;DHT22;43217;52.694;6.214;2023-10-13T13:21:16;19.60;99.90
57390;DHT22;43217;52.694;6.214;2023-10-13T13:23:52;19.50;99.90
57390;DHT22;43217;52.694;6.214;2023-10-13T13:26:24;19.40;99.90
57390;DHT22;43217;52.694;6.214;2023-10-13T13:28:49;19.40;99.90
57390;DHT22;43217;52.694;6.214;2023-10-13T13:31:19;19.30;99.90
57390;DHT22;43217;52.694;6.214;2023-10-13T13:33:44;19.20;99.90
57390;DHT22;43217;52.694;6.214;2023-10-13T13:36:14;19.20;99.90
57390;DHT22;43217;52.694;6.214;2023-10-13T13:38:41;19.10;99.90
57390;DHT22;43217;52.694;6.214;2023-10-13T13:41:26;19.00;99.90
57390;DHT22;43217;52.694;6.214;2023-10-13T13:43:52;18.90;99.90
57390;DHT22;43217;52.694;6.214;2023-10-13T13:46:22;18.80;99.90
57390;DHT22;43217;52.694;6.214;2023-10-13T13:48:53;18.70;99.90
57390;DHT22;43217;52.694;6.214;2023-10-13T13:51:29;18.70;99.90
57390;DHT22;43217;52.694;6.214;2023-10-13T13:53:58;18.60;99.90
57390;DHT22;43217;52.694;6.214;2023-10-13T13:56:24;18.50;99.90
57390;DHT22;43217;52.694;6.214;2023-10-13T13:58:54;18.50;99.90
57390;DHT22;43217;52.694;6.214;2023-10-13T14:01:32;18.40;99.90
57390;DHT22;43217;52.694;6.214;2023-10-13T14:03:59;18.40;99.90
57390;DHT22;43217;52.694;6.214;2023-10-13T14:06:36;18.40;99.90
57390;DHT22;43217;52.694;6.214;2023-10-13T14:09:04;18.40;99.90
57390;DHT22;43217;52.694;6.214;2023-10-13T14:11:50;18.40;99.90
57390;DHT22;43217;52.694;6.214;2023-10-13T14:14:34;18.40;99.90
57390;DHT22;43217;52.694;6.214;2023-10-13T14:16:59;18.30;99.90
57390;DHT22;43217;52.694;6.214;2023-10-13T14:19:32;18.40;99.90
57390;DHT22;43217;52.694;6.214;2023-10-13T14:22:03;18.40;99.90
57390;DHT22;43217;52.694;6.214;2023-10-13T14:24:32;18.40;99.90
57390;DHT22;43217;52.694;6.214;2023-10-13T14:27:03;18.40;99.90
57390;DHT22;43217;52.694;6.214;2023-10-13T14:29:41;18.50;99.90
57390;DHT22;43217;52.694;6.214;2023-10-13T14:32:13;18.40;99.90
57390;DHT22;43217;52.694;6.214;2023-10-13T14:34:42;18.50;99.90
57390;DHT22;43217;52.694;6.214;2023-10-13T14:37:08;18.50;99.90
57390;DHT22;43217;52.694;6.214;2023-10-13T14:39:34;18.50;99.90
57390;DHT22;43217;52.694;6.214;2023-10-13T14:42:02;18.50;99.90
57390;DHT22;43217;52.694;6.214;2023-10-13T14:44:31;18.50;99.90
57390;DHT22;43217;52.694;6.214;2023-10-13T14:46:57;18.50;99.90
57390;DHT22;43217;52.694;6.214;2023-10-13T14:49:23;18.50;99.90
57390;DHT22;43217;52.694;6.214;2023-10-13T14:51:49;18.50;99.90
57390;DHT22;43217;52.694;6.214;2023-10-13T14:54:16;18.40;99.90
57390;DHT22;43217;52.694;6.214;2023-10-13T14:56:42;18.50;99.90
57390;DHT22;43217;52.694;6.214;2023-10-13T14:59:08;18.40;99.90
57390;DHT22;43217;52.694;6.214;2023-10-13T15:01:42;18.40;99.90
57390;DHT22;43217;52.694;6.214;2023-10-13T15:04:08;18.30;99.90
57390;DHT22;43217;52.694;6.214;2023-10-13T15:06:34;18.30;99.90
57390;DHT22;43217;52.694;6.214;2023-10-13T15:09:00;18.20;99.90
57390;DHT22;43217;52.694;6.214;2023-10-13T15:11:27;18.10;99.90
57390;DHT22;43217;52.694;6.214;2023-10-13T15:14:02;18.10;99.90
57390;DHT22;43217;52.694;6.214;2023-10-13T15:16:28;18.00;99.90
57390;DHT22;43217;52.694;6.214;2023-10-13T15:18:54;18.00;99.90
57390;DHT22;43217;52.694;6.214;2023-10-13T15:21:24;17.90;99.90
57390;DHT22;43217;52.694;6.214;2023-10-13T15:24:04;17.90;99.90
57390;DHT22;43217;52.694;6.214;2023-10-13T15:26:39;17.90;99.90
57390;DHT22;43217;52.694;6.214;2023-10-13T15:29:07;17.80;99.90
57390;DHT22;43217;52.694;6.214;2023-10-13T15:31:38;17.80;99.90
57390;DHT22;43217;52.694;6.214;2023-10-13T15:34:12;17.80;99.90
57390;DHT22;43217;52.694;6.214;2023-10-13T15:36:42;17.80;99.90
57390;DHT22;43217;52.694;6.214;2023-10-13T15:39:12;17.80;99.90
57390;DHT22;43217;52.694;6.214;2023-10-13T15:41:42;17.80;99.90
57390;DHT22;43217;52.694;6.214;2023-10-13T15:44:12;17.70;99.90
57390;DHT22;43217;52.694;6.214;2023-10-13T15:46:39;17.70;99.90
57390;DHT22;43217;52.694;6.214;2023-10-13T15:49:06;17.70;99.90
57390;DHT22;43217;52.694;6.214;2023-10-13T15:51:33;17.70;99.90
57390;DHT22;43217;52.694;6.214;2023-10-13T15:54:05;17.60;99.90
57390;DHT22;43217;52.694;6.214;2023-10-13T15:56:43;17.70;99.90
57390;DHT22;43217;52.694;6.214;2023-10-13T15:59:10;17.70;99.90
57390;DHT22;43217;52.694;6.214;2023-10-13T16:01:36;17.70;99.90
57390;DHT22;43217;52.694;6.214;2023-10-13T16:04:04;17.60;99.90
57390;DHT22;43217;52.694;6.214;2023-10-13T16:06:37;17.60;99.90
57390;DHT22;43217;52.694;6.214;2023-10-13T16:09:03;17.60;99.90
57390;DHT22;43217;52.694;6.214;2023-10-13T16:11:35;17.60;99.90
57390;DHT22;43217;52.694;6.214;2023-10-13T16:14:01;17.60;99.90
57390;DHT22;43217;52.694;6.214;2023-10-13T16:16:31;17.60;99.90
57390;DHT22;43217;52.694;6.214;2023-10-13T16:18:56;17.60;99.90
57390;DHT22;43217;52.694;6.214;2023-10-13T16:21:22;17.60;99.90
57390;DHT22;43217;52.694;6.214;2023-10-13T16:23:49;17.60;99.90